Time;durP1;ratioP1;P1;durP2;ratioP2;P2;SDS_P1;SDS_P2;PMS_P1;PMS_P2;Temp;Humidity;BMP_temperature;BMP_pressure;BME280_temperature;BME280_humidity;BME280_pressure;Samples;Min_cycle;Max_cycle;Signal;HPM_P1;HPM_P2
2021/09/30 00:00:18;;;;;;;21.93;20.73;;;10.60;88.00;;;;;;5116235;27;20565;-71
2021/09/30 00:02:46;;;;;;;21.87;20.67;;;10.60;87.60;;;;;;5128715;27;20479;-71
2021/09/30 00:05:14;;;;;;;22.00;20.73;;;10.50;87.90;;;;;;5126152;27;21085;-71
2021/09/30 00:07:42;;;;;;;22.87;21.57;;;10.60;87.60;;;;;;5117379;27;20857;-71
2021/09/30 00:10:15;;;;;;;21.67;20.57;;;10.50;87.60;;;;;;5119477;27;20484;-71
2021/09/30 00:12:45;;;;;;;21.80;20.60;;;10.50;87.90;;;;;;5119530;27;20477;-71
2021/09/30 00:15:15;;;;;;;20.70;19.57;;;10.50;88.20;;;;;;5117067;27;20463;-71
2021/09/30 00:18:06;;;;;;;21.10;19.80;;;10.40;88.40;;;;;;5111018;27;20462;-72
2021/09/30 00:34:20;;;;;;;21.10;19.80;;;10.40;87.90;;;;;;5124199;28;20441;-71
2021/09/30 00:42:23;;;;;;;21.00;19.83;;;10.30;88.00;;;;;;5107723;27;20474;-71
2021/09/30 00:47:39;;;;;;;21.10;19.97;;;10.30;88.00;;;;;;5119664;27;20462;-71
2021/09/30 00:50:16;;;;;;;21.07;19.87;;;10.20;88.40;;;;;;5124006;27;20482;-71
2021/09/30 00:52:47;;;;;;;20.43;19.33;;;10.20;88.30;;;;;;5117625;27;20449;-71
2021/09/30 00:55:50;;;;;;;21.60;20.30;;;10.10;88.90;;;;;;5123377;27;20454;-71
2021/09/30 02:19:31;;;;;;;21.33;20.13;;;9.50;89.80;;;;;;5118623;27;20204;-72
2021/09/30 02:22:13;;;;;;;22.13;20.83;;;9.50;90.00;;;;;;5111964;27;20212;-72
2021/09/30 02:58:39;;;;;;;21.45;20.35;;;9.40;89.90;;;;;;5043973;28;20227;-73
2021/09/30 03:01:08;;;;;;;22.33;21.02;;;9.40;89.80;;;;;;5076520;28;20214;-73
2021/09/30 03:03:38;;;;;;;22.33;21.02;;;9.40;89.60;;;;;;5085435;28;20222;-71
2021/09/30 03:06:07;;;;;;;22.45;21.15;;;9.40;89.50;;;;;;5090393;28;20273;-72
2021/09/30 03:08:41;;;;;;;23.73;22.33;;;9.40;89.60;;;;;;5093336;28;20268;-72
2021/09/30 03:11:08;;;;;;;22.02;20.50;;;9.30;89.60;;;;;;5089804;28;20226;-72
2021/09/30 03:13:37;;;;;;;23.00;21.80;;;9.30;89.50;;;;;;5088820;28;20660;-72
2021/09/30 03:16:10;;;;;;;22.38;20.98;;;9.20;89.80;;;;;;5099043;28;20241;-72
2021/09/30 03:18:51;;;;;;;23.27;22.08;;;9.20;90.10;;;;;;5086113;28;20505;-72
2021/09/30 03:24:06;;;;;;;23.48;22.17;;;9.20;90.00;;;;;;5085493;28;20662;-72
2021/09/30 03:26:33;;;;;;;24.42;23.13;;;9.30;89.70;;;;;;5087998;28;20197;-72
2021/09/30 03:29:02;;;;;;;23.02;21.50;;;9.30;89.50;;;;;;5087846;28;20202;-72
2021/09/30 03:31:30;;;;;;;23.17;21.70;;;9.30;89.20;;;;;;5095132;28;20238;-72
2021/09/30 03:33:57;;;;;;;23.83;22.38;;;9.20;89.40;;;;;;5086032;28;20198;-72
2021/09/30 03:36:26;;;;;;;21.88;20.58;;;9.20;89.50;;;;;;5090279;28;20208;-72
2021/09/30 03:38:53;;;;;;;23.65;22.45;;;9.20;89.60;;;;;;5091094;28;20279;-72
2021/09/30 03:41:20;;;;;;;23.15;21.90;;;9.10;89.80;;;;;;5098172;28;20304;-72
2021/09/30 03:43:47;;;;;;;23.02;21.73;;;9.10;89.80;;;;;;5075147;28;20691;-71
2021/09/30 03:46:14;;;;;;;25.92;23.88;;;9.10;90.00;;;;;;5072950;28;20843;-72
2021/09/30 03:48:41;;;;;;;25.15;23.45;;;9.10;90.00;;;;;;5074534;28;20193;-72
2021/09/30 03:51:12;;;;;;;23.30;21.77;;;9.10;90.00;;;;;;5071389;28;20225;-72
2021/09/30 03:53:52;;;;;;;22.90;21.60;;;9.00;89.90;;;;;;5071643;28;20199;-72
2021/09/30 03:56:34;;;;;;;23.17;21.88;;;9.00;90.20;;;;;;5070114;28;20708;-72
2021/09/30 03:59:19;;;;;;;22.88;21.67;;;8.90;90.20;;;;;;5080142;28;20239;-72
2021/09/30 04:01:55;;;;;;;22.67;21.40;;;8.90;90.30;;;;;;5074573;28;20342;-72
2021/09/30 04:04:23;;;;;;;22.55;21.15;;;9.00;90.10;;;;;;5074190;28;20274;-72
2021/09/30 04:06:50;;;;;;;22.90;21.63;;;9.00;89.90;;;;;;5075698;28;20207;-72
2021/09/30 04:09:19;;;;;;;25.33;23.92;;;8.90;90.00;;;;;;5082642;28;20203;-72
2021/09/30 04:11:46;;;;;;;22.50;21.30;;;8.90;89.90;;;;;;5084647;28;20235;-72
2021/09/30 04:14:13;;;;;;;22.85;21.55;;;8.90;89.90;;;;;;5074130;28;20284;-72
2021/09/30 04:16:41;;;;;;;23.55;22.20;;;8.80;90.00;;;;;;5070106;28;20193;-72
2021/09/30 04:19:08;;;;;;;23.98;22.38;;;8.80;90.20;;;;;;5071573;28;20201;-72
2021/09/30 04:21:35;;;;;;;23.60;22.00;;;8.80;89.80;;;;;;5077871;28;20213;-72
2021/09/30 04:24:02;;;;;;;24.92;23.52;;;8.80;89.90;;;;;;5069978;28;20287;-72
2021/09/30 04:26:30;;;;;;;23.58;21.90;;;8.70;90.10;;;;;;5084387;28;20292;-72
2021/09/30 04:28:57;;;;;;;23.80;22.08;;;8.70;90.40;;;;;;5083553;28;20200;-72
2021/09/30 04:31:24;;;;;;;23.38;21.85;;;8.70;90.50;;;;;;5071028;28;20829;-72
2021/09/30 04:33:52;;;;;;;22.77;21.48;;;8.70;90.40;;;;;;5073623;28;20659;-72
2021/09/30 04:36:21;;;;;;;24.10;22.60;;;8.70;90.00;;;;;;5075317;28;20554;-72
2021/09/30 04:38:48;;;;;;;22.38;21.10;;;8.90;89.90;;;;;;5075279;28;20707;-72
2021/09/30 04:41:15;;;;;;;23.17;21.88;;;8.80;89.70;;;;;;5106273;28;20587;-72
2021/09/30 04:43:45;;;;;;;22.77;21.27;;;8.80;89.70;;;;;;5072724;28;20195;-72
2021/09/30 04:46:13;;;;;;;23.10;21.75;;;8.60;90.10;;;;;;5072482;28;20365;-72
2021/09/30 04:48:40;;;;;;;23.77;22.38;;;8.60;90.50;;;;;;5073731;28;20194;-72
2021/09/30 04:51:08;;;;;;;22.33;21.13;;;8.50;90.70;;;;;;5077402;28;20217;-71
2021/09/30 04:53:34;;;;;;;23.92;22.50;;;8.50;90.80;;;;;;5074126;28;20213;-72
2021/09/30 04:56:01;;;;;;;23.20;21.75;;;8.50;90.80;;;;;;5076317;28;20212;-72
2021/09/30 04:58:29;;;;;;;23.63;22.08;;;8.50;90.80;;;;;;5078267;28;20713;-72
2021/09/30 05:00:57;;;;;;;22.08;20.88;;;8.50;90.80;;;;;;5088723;28;20220;-74
2021/09/30 05:03:24;;;;;;;23.98;22.60;;;8.50;90.80;;;;;;5076431;28;20189;-73
2021/09/30 05:05:51;;;;;;;23.48;22.02;;;8.50;90.70;;;;;;5080477;28;20288;-77
2021/09/30 05:08:18;;;;;;;22.77;21.38;;;8.50;90.50;;;;;;5073007;28;20193;-73
2021/09/30 05:10:47;;;;;;;24.20;22.60;;;8.40;90.70;;;;;;5071567;28;20240;-72
2021/09/30 05:13:18;;;;;;;23.63;22.33;;;8.40;90.80;;;;;;5075878;28;20378;-71
2021/09/30 05:15:44;;;;;;;23.30;22.00;;;8.40;91.00;;;;;;5083158;28;20200;-72
2021/09/30 05:18:13;;;;;;;24.20;22.70;;;8.40;90.80;;;;;;5073163;28;20203;-71
2021/09/30 05:20:40;;;;;;;25.20;23.63;;;8.40;90.70;;;;;;5064583;28;20271;-72
2021/09/30 05:23:07;;;;;;;22.75;21.50;;;8.40;90.60;;;;;;5063436;28;20192;-72
2021/09/30 05:25:34;;;;;;;26.98;25.38;;;8.40;90.60;;;;;;5085893;28;20653;-72
2021/09/30 05:28:03;;;;;;;22.77;21.38;;;8.40;90.40;;;;;;5082868;28;20187;-71
2021/09/30 05:30:30;;;;;;;23.30;21.70;;;8.40;90.60;;;;;;5089953;28;20224;-71
2021/09/30 05:32:57;;;;;;;22.60;21.30;;;8.30;90.70;;;;;;5080740;28;20270;-71
2021/09/30 05:35:26;;;;;;;22.45;21.25;;;8.40;90.60;;;;;;5070149;28;20545;-71
2021/09/30 05:37:53;;;;;;;24.67;23.27;;;8.40;90.40;;;;;;5079905;28;20193;-71
2021/09/30 05:40:20;;;;;;;23.27;21.98;;;8.40;90.30;;;;;;5080823;28;20219;-70
2021/09/30 05:42:47;;;;;;;23.80;22.50;;;8.40;89.70;;;;;;5074498;28;20191;-70
2021/09/30 05:45:16;;;;;;;25.30;23.90;;;8.40;90.00;;;;;;5070183;28;20198;-70
2021/09/30 05:47:44;;;;;;;24.52;23.23;;;8.30;90.10;;;;;;5075089;28;20253;-70
2021/09/30 05:50:12;;;;;;;22.70;21.42;;;8.30;90.40;;;;;;5077374;28;20224;-70
2021/09/30 05:52:41;;;;;;;23.70;22.30;;;8.20;90.70;;;;;;5085541;28;20218;-71
2021/09/30 05:55:10;;;;;;;23.75;22.33;;;8.20;90.50;;;;;;5069289;28;20196;-69
2021/09/30 05:57:37;;;;;;;23.45;21.92;;;8.30;90.40;;;;;;5078913;28;20192;-71
2021/09/30 06:00:14;;;;;;;23.80;22.30;;;8.30;90.50;;;;;;5075767;28;20564;-70
2021/09/30 06:10:58;;;;;;;22.48;21.10;;;8.50;89.90;;;;;;5079636;28;20228;-71
2021/09/30 06:13:29;;;;;;;21.95;20.65;;;8.60;89.60;;;;;;5072065;28;20216;-71
2021/09/30 06:15:56;;;;;;;22.70;21.42;;;8.60;89.60;;;;;;5080108;28;20249;-72
2021/09/30 06:18:23;;;;;;;23.67;22.20;;;8.60;89.60;;;;;;5077429;28;20197;-71
2021/09/30 06:20:51;;;;;;;22.90;21.63;;;8.70;89.50;;;;;;5069970;28;20258;-71
2021/09/30 06:23:20;;;;;;;23.15;21.85;;;8.70;89.60;;;;;;5071063;28;20192;-70
2021/09/30 06:25:48;;;;;;;24.95;23.45;;;8.80;89.30;;;;;;5090052;28;20591;-70
2021/09/30 06:28:15;;;;;;;22.75;21.45;;;8.90;88.90;;;;;;5077181;28;22609;-70
2021/09/30 06:30:42;;;;;;;24.95;23.25;;;9.00;88.70;;;;;;5073506;28;20701;-71
2021/09/30 06:33:09;;;;;;;21.98;20.75;;;9.00;88.70;;;;;;5072306;28;20219;-70
2021/09/30 06:35:36;;;;;;;23.05;21.65;;;9.10;88.70;;;;;;5077583;28;20205;-71
2021/09/30 06:38:03;;;;;;;24.05;22.52;;;9.20;88.30;;;;;;5077572;28;20653;-70
2021/09/30 06:40:31;;;;;;;24.70;23.08;;;9.30;88.00;;;;;;5077356;28;20227;-70
2021/09/30 06:43:02;;;;;;;23.58;22.15;;;9.30;88.10;;;;;;5074414;28;21035;-71
2021/09/30 06:45:29;;;;;;;26.20;24.60;;;9.40;88.10;;;;;;5069581;28;20535;-71
2021/09/30 06:47:57;;;;;;;23.67;22.08;;;9.50;88.10;;;;;;5069143;28;20260;-71
2021/09/30 06:50:24;;;;;;;23.20;21.98;;;9.50;88.00;;;;;;5076733;28;20296;-71
2021/09/30 06:52:51;;;;;;;23.15;21.75;;;9.70;87.60;;;;;;5076397;28;20307;-71
2021/09/30 06:55:18;;;;;;;24.30;22.83;;;9.70;87.30;;;;;;5069997;28;20199;-71
2021/09/30 06:57:47;;;;;;;24.52;23.13;;;9.80;87.40;;;;;;5075908;28;20949;-71
2021/09/30 07:00:15;;;;;;;23.17;21.70;;;9.90;87.20;;;;;;5074083;28;20212;-72
2021/09/30 07:02:43;;;;;;;23.93;22.53;;;10.00;87.00;;;;;;5072048;28;21104;-71
2021/09/30 07:05:11;;;;;;;24.93;23.53;;;10.10;86.60;;;;;;5084437;28;20500;-72
2021/09/30 07:07:39;;;;;;;23.60;22.20;;;10.20;86.40;;;;;;5073567;28;20458;-73
2021/09/30 07:10:08;;;;;;;24.40;23.00;;;10.30;86.50;;;;;;5088610;28;20487;-73
2021/09/30 07:12:35;;;;;;;24.00;22.50;;;10.40;86.20;;;;;;5079818;28;20481;-73
2021/09/30 07:15:04;;;;;;;23.60;22.40;;;10.50;85.80;;;;;;5072409;28;20997;-71
2021/09/30 07:17:31;;;;;;;22.60;21.50;;;10.60;85.50;;;;;;5081079;28;20451;-71
2021/09/30 07:20:01;;;;;;;25.33;23.80;;;10.80;84.80;;;;;;5090611;28;20481;-71
2021/09/30 07:22:28;;;;;;;23.97;22.27;;;11.00;84.20;;;;;;5086722;28;20500;-73
2021/09/30 07:24:54;;;;;;;22.63;21.37;;;11.00;83.70;;;;;;5089291;28;20552;-71
2021/09/30 07:27:21;;;;;;;25.40;23.90;;;11.10;83.40;;;;;;5076623;28;20458;-70
2021/09/30 07:29:50;;;;;;;23.57;22.37;;;11.30;82.80;;;;;;5073365;28;20470;-70
2021/09/30 07:32:19;;;;;;;23.30;22.10;;;11.50;81.80;;;;;;5072219;28;20515;-72
2021/09/30 07:34:46;;;;;;;24.20;22.63;;;11.50;81.60;;;;;;5072956;28;20454;-73
2021/09/30 07:37:13;;;;;;;23.93;22.63;;;11.60;81.70;;;;;;5080551;28;21210;-72
2021/09/30 07:39:40;;;;;;;25.03;23.33;;;11.60;81.50;;;;;;5073026;28;20473;-72
2021/09/30 07:42:07;;;;;;;24.33;22.90;;;11.70;81.30;;;;;;5073939;28;20450;-73
2021/09/30 07:44:34;;;;;;;23.90;22.50;;;11.90;80.70;;;;;;5074161;28;20461;-72
2021/09/30 07:47:01;;;;;;;27.00;25.50;;;12.00;80.40;;;;;;5073817;28;20454;-72
2021/09/30 07:49:30;;;;;;;25.00;23.50;;;12.10;79.90;;;;;;5073166;28;20476;-72
2021/09/30 07:51:57;;;;;;;24.37;22.67;;;12.20;79.00;;;;;;5086092;28;20449;-72
2021/09/30 07:54:24;;;;;;;25.37;23.97;;;12.30;78.50;;;;;;5071928;28;20476;-72
2021/09/30 07:56:51;;;;;;;24.50;23.20;;;12.40;77.40;;;;;;5071632;28;20565;-72
2021/09/30 07:59:18;;;;;;;24.43;22.90;;;12.50;77.40;;;;;;5085077;28;20976;-72
2021/09/30 08:01:45;;;;;;;24.63;23.13;;;12.70;76.40;;;;;;5080623;28;20486;-72
2021/09/30 08:04:14;;;;;;;25.30;23.77;;;12.80;75.70;;;;;;5086740;28;20542;-72
2021/09/30 08:06:42;;;;;;;23.13;21.83;;;12.90;75.20;;;;;;5084999;28;20447;-72
2021/09/30 08:09:09;;;;;;;25.37;24.00;;;12.90;73.80;;;;;;5072384;28;20481;-72
2021/09/30 08:11:37;;;;;;;24.80;23.30;;;12.90;73.40;;;;;;5088047;28;20476;-72
2021/09/30 08:14:04;;;;;;;24.23;22.93;;;13.00;72.90;;;;;;5089177;28;20483;-72
2021/09/30 08:16:31;;;;;;;24.73;23.40;;;13.10;72.60;;;;;;5076857;28;20450;-72
2021/09/30 08:18:58;;;;;;;23.97;22.27;;;13.20;71.00;;;;;;5071951;28;20453;-72
2021/09/30 08:21:27;;;;;;;23.80;22.50;;;13.30;70.60;;;;;;5073618;28;20486;-72
2021/09/30 08:23:55;;;;;;;24.60;23.00;;;13.40;71.00;;;;;;5082887;28;20486;-72
2021/09/30 08:26:23;;;;;;;26.27;24.77;;;13.60;70.80;;;;;;5072723;28;20815;-72
2021/09/30 08:28:52;;;;;;;24.53;23.13;;;13.60;69.70;;;;;;5071773;28;20458;-72
2021/09/30 08:31:21;;;;;;;24.50;23.20;;;13.60;68.70;;;;;;5071142;28;20492;-72
2021/09/30 08:33:48;;;;;;;25.80;24.00;;;13.60;67.80;;;;;;5076690;28;20485;-73
2021/09/30 08:36:15;;;;;;;24.90;23.37;;;13.70;67.20;;;;;;5091142;28;20471;-71
2021/09/30 08:38:44;;;;;;;23.60;22.40;;;13.60;65.60;;;;;;5073751;28;20461;-72
2021/09/30 08:41:15;;;;;;;24.83;23.43;;;13.60;65.10;;;;;;5070637;28;21080;-72
2021/09/30 08:43:42;;;;;;;24.60;23.10;;;13.70;65.40;;;;;;5085241;28;20477;-72
2021/09/30 08:46:09;;;;;;;25.07;23.57;;;13.80;65.20;;;;;;5091391;28;20449;-70
2021/09/30 08:48:37;;;;;;;27.23;25.63;;;14.00;64.50;;;;;;5081204;28;20460;-71
2021/09/30 08:51:05;;;;;;;24.13;22.73;;;14.20;63.70;;;;;;5083601;28;20596;-70
2021/09/30 08:53:33;;;;;;;24.60;23.30;;;14.30;64.10;;;;;;5072013;28;20505;-70
2021/09/30 08:56:00;;;;;;;24.77;23.47;;;14.50;64.70;;;;;;5082585;28;20453;-71
2021/09/30 08:58:28;;;;;;;26.67;24.80;;;14.80;63.80;;;;;;5083077;28;20464;-71
2021/09/30 09:00:58;;;;;;;24.53;22.93;;;15.00;63.50;;;;;;5070826;28;20485;-71
2021/09/30 09:03:36;;;;;;;24.40;23.10;;;15.00;60.50;;;;;;5070501;28;20860;-70
2021/09/30 09:06:04;;;;;;;25.17;23.60;;;14.70;60.30;;;;;;5076185;28;20456;-70
2021/09/30 09:08:31;;;;;;;25.73;23.60;;;14.70;60.70;;;;;;5073003;28;20465;-70
2021/09/30 09:10:59;;;;;;;25.47;23.90;;;14.90;61.00;;;;;;5085393;28;20469;-72
2021/09/30 09:13:29;;;;;;;23.90;22.60;;;15.20;59.70;;;;;;5087121;28;20470;-70
2021/09/30 09:15:59;;;;;;;25.20;23.80;;;15.20;56.50;;;;;;5071067;28;20454;-71
2021/09/30 09:18:28;;;;;;;25.67;24.17;;;15.10;57.80;;;;;;5071366;28;20458;-72
2021/09/30 09:21:05;;;;;;;25.07;23.33;;;15.30;59.10;;;;;;5078516;28;22828;-73
2021/09/30 09:23:33;;;;;;;25.10;23.67;;;15.10;60.30;;;;;;5074738;28;20453;-71
2021/09/30 09:26:08;;;;;;;24.13;22.60;;;15.20;60.40;;;;;;5091116;28;20453;-72
2021/09/30 09:28:38;;;;;;;24.47;23.07;;;15.20;59.40;;;;;;5085066;28;20705;-71
2021/09/30 09:31:05;;;;;;;25.17;23.57;;;15.10;59.60;;;;;;5090220;28;20491;-71
2021/09/30 09:33:35;;;;;;;24.73;23.23;;;15.00;58.40;;;;;;5084605;28;20994;-71
2021/09/30 09:36:05;;;;;;;24.00;22.60;;;15.00;59.60;;;;;;5081936;28;20460;-71
2021/09/30 09:38:47;;;;;;;25.33;23.93;;;15.00;59.50;;;;;;5082818;28;20485;-72
2021/09/30 09:41:22;;;;;;;24.70;23.40;;;15.10;59.80;;;;;;5082668;28;20912;-71
2021/09/30 09:43:52;;;;;;;25.00;23.43;;;15.10;58.80;;;;;;5071365;28;21026;-72
2021/09/30 09:46:21;;;;;;;25.00;23.47;;;15.10;58.30;;;;;;5069722;28;20454;-71
2021/09/30 09:48:57;;;;;;;24.00;22.70;;;15.20;58.10;;;;;;5069533;28;20458;-71
2021/09/30 09:51:24;;;;;;;24.20;22.80;;;15.30;55.50;;;;;;5084328;28;20555;-72
2021/09/30 09:53:56;;;;;;;25.20;23.60;;;15.30;55.20;;;;;;5081539;28;21005;-71
2021/09/30 09:56:23;;;;;;;25.63;24.23;;;15.40;55.80;;;;;;5069524;28;20844;-72
2021/09/30 09:58:55;;;;;;;25.63;23.93;;;15.60;55.70;;;;;;5070042;28;20966;-71
2021/09/30 10:01:24;;;;;;;24.73;23.33;;;15.80;55.60;;;;;;5083802;28;20557;-71
2021/09/30 10:03:54;;;;;;;28.40;26.50;;;15.80;55.70;;;;;;5081065;28;20454;-73
2021/09/30 10:06:21;;;;;;;27.20;25.20;;;15.90;56.00;;;;;;5074896;28;20454;-71
2021/09/30 10:08:49;;;;;;;24.60;23.20;;;16.00;55.40;;;;;;5069298;28;20457;-71
2021/09/30 10:11:16;;;;;;;25.53;24.13;;;15.90;55.00;;;;;;5076582;28;20568;-71
2021/09/30 10:13:43;;;;;;;25.60;24.20;;;15.90;55.20;;;;;;5068850;28;20477;-75
2021/09/30 10:16:15;;;;;;;39.73;27.97;;;15.90;54.30;;;;;;5067995;28;20832;-73
2021/09/30 10:18:42;;;;;;;24.53;23.13;;;15.90;54.70;;;;;;5073587;28;20454;-74
2021/09/30 10:21:09;;;;;;;24.97;23.37;;;15.90;54.60;;;;;;5085876;28;20477;-72
2021/09/30 10:23:38;;;;;;;24.13;22.83;;;16.00;54.70;;;;;;5069333;28;20454;-74
2021/09/30 10:26:13;;;;;;;24.37;23.07;;;16.00;55.70;;;;;;5068940;28;20449;-73
2021/09/30 10:28:43;;;;;;;25.70;23.80;;;16.10;55.90;;;;;;5075135;28;20466;-74
2021/09/30 10:31:27;;;;;;;24.87;23.30;;;16.10;56.40;;;;;;5079484;28;20490;-72
2021/09/30 10:33:56;;;;;;;25.80;24.30;;;16.20;56.30;;;;;;5069016;28;20592;-75
2021/09/30 10:36:48;;;;;;;24.20;22.80;;;16.20;56.40;;;;;;5069402;28;20854;-72
2021/09/30 10:39:22;;;;;;;24.40;23.10;;;16.30;55.40;;;;;;5063624;28;20454;-72
2021/09/30 10:41:50;;;;;;;24.03;22.63;;;16.50;54.40;;;;;;5068115;28;20952;-71
2021/09/30 10:44:19;;;;;;;24.93;23.53;;;16.40;54.40;;;;;;5068861;28;21443;-74
2021/09/30 10:46:55;;;;;;;25.00;23.40;;;16.30;53.20;;;;;;5081992;28;20561;-72
2021/09/30 10:49:47;;;;;;;25.30;23.80;;;16.30;53.50;;;;;;5069343;28;20463;-73
2021/09/30 10:52:26;;;;;;;26.07;24.47;;;16.40;53.30;;;;;;5065929;28;20454;-75
2021/09/30 10:54:56;;;;;;;27.17;25.47;;;16.40;53.50;;;;;;5084833;28;20477;-72
2021/09/30 10:57:40;;;;;;;24.80;23.10;;;16.40;54.30;;;;;;5073565;28;20454;-72
2021/09/30 11:00:09;;;;;;;24.13;22.60;;;16.40;53.60;;;;;;5074418;28;20482;-73
2021/09/30 11:03:20;;;;;;;24.73;23.20;;;16.30;53.20;;;;;;5073420;28;20495;-74
2021/09/30 11:06:15;;;;;;;23.93;22.50;;;16.40;52.60;;;;;;5083642;28;20487;-71
2021/09/30 11:08:43;;;;;;;24.47;22.70;;;16.50;52.60;;;;;;5072216;28;20458;-72
2021/09/30 11:11:16;;;;;;;24.00;22.70;;;16.50;54.00;;;;;;5085562;28;20575;-71
2021/09/30 11:13:45;;;;;;;24.10;22.70;;;16.60;53.50;;;;;;5080788;28;20494;-73
2021/09/30 11:16:14;;;;;;;23.80;22.50;;;16.40;51.10;;;;;;5091974;28;20536;-72
2021/09/30 11:18:52;;;;;;;24.93;23.10;;;16.40;52.10;;;;;;5071870;28;20462;-73
2021/09/30 11:21:44;;;;;;;25.43;23.77;;;16.50;52.30;;;;;;5073813;28;20560;-73
2021/09/30 11:24:22;;;;;;;24.30;22.67;;;16.40;52.90;;;;;;5087882;28;20952;-73
2021/09/30 11:27:29;;;;;;;24.67;23.17;;;16.50;52.60;;;;;;5077091;28;20987;-73
2021/09/30 11:30:25;;;;;;;24.20;23.00;;;16.70;51.80;;;;;;5062323;28;20560;-73
2021/09/30 11:32:59;;;;;;;25.33;23.87;;;16.60;51.60;;;;;;5080621;28;20566;-73
2021/09/30 11:35:30;;;;;;;24.93;23.47;;;16.80;52.10;;;;;;5092139;28;20488;-72
2021/09/30 11:37:56;;;;;;;25.50;23.93;;;17.00;52.00;;;;;;5080882;28;20815;-73
2021/09/30 11:40:23;;;;;;;24.13;22.73;;;17.20;51.10;;;;;;5081101;28;20536;-72
2021/09/30 11:42:54;;;;;;;25.20;23.60;;;17.30;50.60;;;;;;5073598;28;20450;-71
2021/09/30 11:45:23;;;;;;;28.27;26.67;;;17.30;50.50;;;;;;5072758;28;20453;-72
2021/09/30 11:47:52;;;;;;;24.20;22.90;;;17.50;50.50;;;;;;5080429;28;20455;-73
2021/09/30 11:50:22;;;;;;;24.67;22.97;;;17.40;50.50;;;;;;5074482;28;20470;-73
2021/09/30 11:53:04;;;;;;;25.87;24.37;;;17.50;51.40;;;;;;5072810;28;20561;-73
2021/09/30 11:55:33;;;;;;;24.97;23.47;;;17.60;50.60;;;;;;5078523;28;20909;-74
2021/09/30 11:58:03;;;;;;;24.80;23.20;;;17.70;50.60;;;;;;5077101;28;20454;-76
2021/09/30 12:00:30;;;;;;;24.43;23.13;;;17.70;49.20;;;;;;5075955;28;20564;-77
2021/09/30 12:03:00;;;;;;;25.30;23.70;;;17.60;49.20;;;;;;5077617;28;20449;-73
2021/09/30 12:05:30;;;;;;;26.00;24.43;;;17.50;48.90;;;;;;5078449;28;20453;-73
2021/09/30 12:08:00;;;;;;;25.67;24.13;;;17.40;49.20;;;;;;5077521;28;20450;-75
2021/09/30 12:10:29;;;;;;;25.20;23.73;;;17.30;49.80;;;;;;5079766;28;20917;-73
2021/09/30 12:12:56;;;;;;;25.40;23.50;;;17.20;50.80;;;;;;5076661;28;21050;-78
2021/09/30 12:15:24;;;;;;;26.23;24.63;;;17.20;51.00;;;;;;5076661;28;20473;-73
2021/09/30 12:17:51;;;;;;;24.90;23.50;;;17.10;51.10;;;;;;5082207;28;20489;-73
2021/09/30 12:20:19;;;;;;;25.87;23.97;;;17.00;51.10;;;;;;5071632;28;20813;-73
2021/09/30 12:22:49;;;;;;;26.50;24.70;;;17.00;51.40;;;;;;5071454;28;20881;-74
2021/09/30 12:25:19;;;;;;;24.53;23.23;;;17.10;51.60;;;;;;5075670;28;21052;-73
2021/09/30 12:27:49;;;;;;;25.33;23.63;;;17.30;51.00;;;;;;5072679;28;20454;-72
2021/09/30 12:30:19;;;;;;;23.77;22.37;;;17.40;51.80;;;;;;5087798;28;21081;-73
2021/09/30 12:32:49;;;;;;;26.70;24.80;;;17.50;51.20;;;;;;5078939;28;20494;-73
2021/09/30 12:35:22;;;;;;;24.33;22.93;;;17.50;50.50;;;;;;5077372;28;20476;-72
2021/09/30 12:37:52;;;;;;;24.60;23.10;;;17.50;50.50;;;;;;5074618;28;20457;-71
2021/09/30 12:40:26;;;;;;;25.10;23.80;;;17.50;51.00;;;;;;5065475;28;20477;-71
2021/09/30 12:42:59;;;;;;;25.87;24.47;;;17.40;50.00;;;;;;5066348;28;20478;-71
2021/09/30 12:45:26;;;;;;;24.80;23.40;;;17.30;51.40;;;;;;5067013;28;20450;-71
2021/09/30 12:48:02;;;;;;;25.47;24.00;;;17.30;50.90;;;;;;5073395;28;20458;-72
2021/09/30 12:50:37;;;;;;;25.60;24.20;;;17.40;50.80;;;;;;5076434;28;20477;-71
2021/09/30 12:53:05;;;;;;;25.20;23.80;;;17.50;50.80;;;;;;5068323;28;20471;-71
2021/09/30 12:55:34;;;;;;;25.17;23.87;;;17.50;49.90;;;;;;5063914;28;20570;-71
2021/09/30 12:58:01;;;;;;;25.23;23.53;;;17.70;49.80;;;;;;5063966;28;21365;-71
2021/09/30 13:00:33;;;;;;;25.10;23.70;;;17.70;49.80;;;;;;5059961;28;20470;-71
2021/09/30 13:03:13;;;;;;;25.50;24.10;;;17.80;49.40;;;;;;5061544;28;20472;-71
2021/09/30 13:05:47;;;;;;;27.20;25.50;;;17.90;49.50;;;;;;5059368;28;20446;-71
2021/09/30 13:08:36;;;;;;;25.37;23.37;;;17.90;49.40;;;;;;5061608;28;20480;-72
2021/09/30 13:11:30;;;;;;;25.50;23.87;;;18.10;48.20;;;;;;5074235;28;20477;-72
2021/09/30 13:14:19;;;;;;;25.63;23.87;;;18.00;48.10;;;;;;5071212;28;20499;-71
2021/09/30 13:16:48;;;;;;;24.60;23.10;;;17.90;48.80;;;;;;5059655;28;20978;-71
2021/09/30 13:19:15;;;;;;;24.40;23.00;;;17.80;49.40;;;;;;5062995;28;20465;-71
2021/09/30 13:21:59;;;;;;;24.63;23.23;;;17.70;49.60;;;;;;5066495;28;20480;-71
2021/09/30 13:24:26;;;;;;;25.50;23.90;;;17.70;49.20;;;;;;5075675;28;20453;-71
2021/09/30 13:26:55;;;;;;;25.00;23.60;;;17.80;48.90;;;;;;5085096;28;21093;-71
2021/09/30 13:29:22;;;;;;;24.87;23.37;;;17.80;48.40;;;;;;5070606;28;20449;-70
2021/09/30 13:31:50;;;;;;;24.70;23.30;;;17.70;48.50;;;;;;5076825;28;20963;-71
2021/09/30 13:34:17;;;;;;;24.80;23.20;;;17.70;48.30;;;;;;5067260;28;20947;-71
2021/09/30 13:36:44;;;;;;;24.77;23.40;;;17.70;47.90;;;;;;5083697;28;20461;-71
2021/09/30 13:39:11;;;;;;;24.63;23.23;;;17.70;48.30;;;;;;5069490;28;21094;-71
2021/09/30 13:41:38;;;;;;;24.43;22.93;;;17.80;48.80;;;;;;5060699;28;20470;-70
2021/09/30 13:44:07;;;;;;;24.20;22.80;;;17.80;48.90;;;;;;5064111;28;23092;-70
2021/09/30 13:46:34;;;;;;;25.07;23.67;;;17.90;48.20;;;;;;5061252;28;20544;-71
2021/09/30 13:49:01;;;;;;;25.23;23.73;;;17.90;47.70;;;;;;5060401;28;20449;-70
2021/09/30 13:51:28;;;;;;;25.10;23.53;;;17.80;48.20;;;;;;5056783;28;20482;-70
2021/09/30 13:53:56;;;;;;;24.43;23.00;;;17.80;48.30;;;;;;5060803;28;20457;-71
2021/09/30 13:56:23;;;;;;;24.70;23.40;;;17.80;48.00;;;;;;5071820;28;20495;-71
2021/09/30 13:58:50;;;;;;;25.03;23.40;;;17.90;48.20;;;;;;5069670;28;20902;-70
2021/09/30 14:01:18;;;;;;;25.80;23.70;;;17.90;48.30;;;;;;5067040;28;21980;-71
2021/09/30 14:03:45;;;;;;;25.73;24.00;;;17.70;47.50;;;;;;5063907;28;20468;-70
2021/09/30 14:06:12;;;;;;;25.43;23.83;;;17.70;48.60;;;;;;5067232;28;20453;-71
2021/09/30 14:08:41;;;;;;;25.10;23.20;;;17.70;48.30;;;;;;5064535;28;20443;-70
2021/09/30 14:11:08;;;;;;;25.57;24.23;;;17.70;48.50;;;;;;5070836;28;20493;-71
2021/09/30 14:13:35;;;;;;;26.23;24.73;;;17.70;48.40;;;;;;5071438;28;20453;-70
2021/09/30 14:16:02;;;;;;;24.07;22.83;;;17.80;49.50;;;;;;5070892;28;20569;-70
2021/09/30 14:18:31;;;;;;;27.07;25.20;;;17.70;47.80;;;;;;5070930;28;20567;-70
2021/09/30 14:20:58;;;;;;;24.20;23.00;;;17.70;47.70;;;;;;5067956;28;20469;-70
2021/09/30 14:23:26;;;;;;;25.30;23.80;;;17.70;47.90;;;;;;5067706;28;20458;-70
2021/09/30 14:25:54;;;;;;;23.57;22.37;;;17.60;48.20;;;;;;5059082;28;20466;-70
2021/09/30 14:28:22;;;;;;;23.33;22.13;;;17.70;48.10;;;;;;5060969;28;20958;-70
2021/09/30 14:30:49;;;;;;;25.30;23.80;;;17.60;48.60;;;;;;5060937;28;20478;-72
2021/09/30 14:33:16;;;;;;;24.43;23.13;;;17.70;48.20;;;;;;5076373;28;20457;-72
2021/09/30 14:35:44;;;;;;;24.80;23.50;;;17.70;48.70;;;;;;5086959;28;20544;-72
2021/09/30 14:38:11;;;;;;;24.53;23.13;;;17.70;48.50;;;;;;5076003;28;20457;-72
2021/09/30 14:40:39;;;;;;;25.23;23.67;;;17.80;48.10;;;;;;5069885;28;20496;-72
2021/09/30 14:43:06;;;;;;;23.70;22.50;;;17.80;48.20;;;;;;5069127;28;20513;-72
2021/09/30 14:45:33;;;;;;;25.33;24.03;;;17.90;48.90;;;;;;5074387;28;20972;-73
2021/09/30 14:48:00;;;;;;;23.40;22.10;;;17.90;48.30;;;;;;5077088;28;20466;-72
2021/09/30 14:50:27;;;;;;;24.63;23.33;;;17.70;49.10;;;;;;5075628;28;20560;-72
2021/09/30 14:52:55;;;;;;;24.90;23.40;;;17.70;48.70;;;;;;5074889;28;20490;-72
2021/09/30 14:55:22;;;;;;;24.37;23.07;;;17.50;48.90;;;;;;5070150;28;20484;-72
2021/09/30 14:57:49;;;;;;;24.73;23.23;;;17.30;49.30;;;;;;5077134;28;20445;-72
2021/09/30 15:00:16;;;;;;;26.43;24.93;;;17.30;49.50;;;;;;5087226;28;20475;-72
2021/09/30 15:02:43;;;;;;;24.97;23.50;;;17.30;49.90;;;;;;5073542;28;20468;-72
2021/09/30 15:05:10;;;;;;;25.07;23.60;;;17.50;49.60;;;;;;5072949;28;20441;-72
2021/09/30 15:07:38;;;;;;;26.03;24.40;;;17.50;49.50;;;;;;5068799;28;21454;-72
2021/09/30 15:10:07;;;;;;;27.87;26.23;;;17.60;50.00;;;;;;5070579;28;20560;-73
2021/09/30 15:12:34;;;;;;;25.90;24.33;;;17.70;50.20;;;;;;5078520;28;20461;-72